sensor_id;sensor_type;location;lat;lon;timestamp;pressure;altitude;pressure_sealevel;temperature;humidity
30819;BME280;17546;42.674;23.284;2023-04-03T00:02:03;94118.16;;;17.27;35.13
30819;BME280;17546;42.674;23.284;2023-04-03T00:04:28;94118.34;;;17.37;34.98
30819;BME280;17546;42.674;23.284;2023-04-03T00:06:53;94120.78;;;17.41;34.96
30819;BME280;17546;42.674;23.284;2023-04-03T00:09:19;94094.81;;;17.25;35.30
30819;BME280;17546;42.674;23.284;2023-04-03T00:11:45;94087.72;;;17.24;35.38
30819;BME280;17546;42.674;23.284;2023-04-03T00:14:10;94090.84;;;17.05;35.74
30819;BME280;17546;42.674;23.284;2023-04-03T00:16:36;94083.19;;;17.05;35.33
30819;BME280;17546;42.674;23.284;2023-04-03T00:19:01;94098.72;;;17.22;35.29
30819;BME280;17546;42.674;23.284;2023-04-03T00:21:26;94081.19;;;17.13;35.26
30819;BME280;17546;42.674;23.284;2023-04-03T00:23:52;94103.03;;;17.23;35.29
30819;BME280;17546;42.674;23.284;2023-04-03T00:26:17;94098.16;;;17.23;35.49
30819;BME280;17546;42.674;23.284;2023-04-03T00:28:43;94102.28;;;17.30;35.55
30819;BME280;17546;42.674;23.284;2023-04-03T00:31:09;94105.03;;;17.14;36.03
30819;BME280;17546;42.674;23.284;2023-04-03T00:33:35;94076.84;;;16.97;36.08
30819;BME280;17546;42.674;23.284;2023-04-03T00:36:05;94081.72;;;17.04;36.04
30819;BME280;17546;42.674;23.284;2023-04-03T00:38:31;94104.69;;;17.18;35.96
30819;BME280;17546;42.674;23.284;2023-04-03T00:40:56;94101.88;;;17.10;36.10
30819;BME280;17546;42.674;23.284;2023-04-03T00:43:24;94085.41;;;16.99;36.11
30819;BME280;17546;42.674;23.284;2023-04-03T00:45:59;94110.44;;;17.12;35.96
30819;BME280;17546;42.674;23.284;2023-04-03T00:48:30;94100.03;;;17.21;35.72
30819;BME280;17546;42.674;23.284;2023-04-03T00:50:56;94087.47;;;17.06;35.74
30819;BME280;17546;42.674;23.284;2023-04-03T00:53:25;94106.38;;;17.21;35.57
30819;BME280;17546;42.674;23.284;2023-04-03T00:55:54;94110.50;;;17.20;35.82
30819;BME280;17546;42.674;23.284;2023-04-03T00:58:26;94114.03;;;17.21;35.49
30819;BME280;17546;42.674;23.284;2023-04-03T01:00:55;94099.59;;;17.01;35.58
30819;BME280;17546;42.674;23.284;2023-04-03T01:03:23;94109.50;;;17.10;35.46
30819;BME280;17546;42.674;23.284;2023-04-03T01:05:49;94118.66;;;17.10;35.71
30819;BME280;17546;42.674;23.284;2023-04-03T01:08:15;94116.97;;;17.07;35.78
30819;BME280;17546;42.674;23.284;2023-04-03T01:10:40;94110.06;;;17.08;35.60
30819;BME280;17546;42.674;23.284;2023-04-03T01:13:23;94119.03;;;17.14;35.53
30819;BME280;17546;42.674;23.284;2023-04-03T01:15:48;94112.31;;;17.10;35.93
30819;BME280;17546;42.674;23.284;2023-04-03T01:18:14;94117.91;;;17.02;35.67
30819;BME280;17546;42.674;23.284;2023-04-03T01:20:57;94117.53;;;17.06;35.69
30819;BME280;17546;42.674;23.284;2023-04-03T01:24:32;94118.25;;;17.06;35.84
30819;BME280;17546;42.674;23.284;2023-04-03T01:26:32;94112.66;;;16.99;35.87
30819;BME280;17546;42.674;23.284;2023-04-03T01:28:59;94116.19;;;16.99;35.94
30819;BME280;17546;42.674;23.284;2023-04-03T01:33:57;94106.25;;;16.83;35.74
30819;BME280;17546;42.674;23.284;2023-04-03T01:36:26;94117.69;;;17.00;35.79
30819;BME280;17546;42.674;23.284;2023-04-03T01:38:53;94117.31;;;16.96;35.89
30819;BME280;17546;42.674;23.284;2023-04-03T01:41:19;94099.19;;;16.89;35.59
30819;BME280;17546;42.674;23.284;2023-04-03T01:43:45;94098.56;;;16.76;35.99
30819;BME280;17546;42.674;23.284;2023-04-03T01:46:11;94114.47;;;16.81;35.90
30819;BME280;17546;42.674;23.284;2023-04-03T01:48:36;94113.72;;;16.80;36.11
30819;BME280;17546;42.674;23.284;2023-04-03T01:51:02;94111.97;;;16.69;36.10
30819;BME280;17546;42.674;23.284;2023-04-03T01:53:27;94103.38;;;16.67;36.22
30819;BME280;17546;42.674;23.284;2023-04-03T01:55:53;94100.78;;;16.69;36.22
30819;BME280;17546;42.674;23.284;2023-04-03T01:58:18;94101.31;;;16.68;36.09
30819;BME280;17546;42.674;23.284;2023-04-03T02:00:44;94099.41;;;16.55;36.25
30819;BME280;17546;42.674;23.284;2023-04-03T02:03:09;94107.66;;;16.68;36.47
30819;BME280;17546;42.674;23.284;2023-04-03T02:05:35;94103.91;;;16.66;36.48
30819;BME280;17546;42.674;23.284;2023-04-03T02:08:00;94106.13;;;16.60;36.37
30819;BME280;17546;42.674;23.284;2023-04-03T02:10:26;94108.38;;;16.61;36.56
30819;BME280;17546;42.674;23.284;2023-04-03T02:12:52;94092.84;;;16.45;36.57
30819;BME280;17546;42.674;23.284;2023-04-03T02:15:17;94095.75;;;16.31;36.61
30819;BME280;17546;42.674;23.284;2023-04-03T02:17:43;94096.44;;;16.24;36.91
30819;BME280;17546;42.674;23.284;2023-04-03T02:20:09;94118.66;;;16.30;36.95
30819;BME280;17546;42.674;23.284;2023-04-03T02:22:35;94102.22;;;16.26;36.79
30819;BME280;17546;42.674;23.284;2023-04-03T02:25:00;94112.16;;;16.35;36.66
30819;BME280;17546;42.674;23.284;2023-04-03T02:27:26;94106.38;;;16.33;36.86
30819;BME280;17546;42.674;23.284;2023-04-03T02:29:52;94107.63;;;16.24;37.23
30819;BME280;17546;42.674;23.284;2023-04-03T02:32:17;94079.38;;;16.07;37.27
30819;BME280;17546;42.674;23.284;2023-04-03T02:34:42;94104.38;;;16.13;37.57
30819;BME280;17546;42.674;23.284;2023-04-03T02:37:08;94081.19;;;15.97;37.35
30819;BME280;17546;42.674;23.284;2023-04-03T02:39:34;94096.53;;;16.11;37.33
30819;BME280;17546;42.674;23.284;2023-04-03T02:41:59;94096.50;;;16.03;37.49
30819;BME280;17546;42.674;23.284;2023-04-03T02:44:25;94098.16;;;15.99;37.47
30819;BME280;17546;42.674;23.284;2023-04-03T02:46:50;94091.47;;;16.02;37.65
30819;BME280;17546;42.674;23.284;2023-04-03T02:49:16;94101.34;;;16.03;37.61
30819;BME280;17546;42.674;23.284;2023-04-03T02:51:41;94092.88;;;15.87;37.91
30819;BME280;17546;42.674;23.284;2023-04-03T02:54:07;94069.78;;;15.66;38.17
30819;BME280;17546;42.674;23.284;2023-04-03T02:56:32;94079.56;;;15.80;38.11
30819;BME280;17546;42.674;23.284;2023-04-03T02:58:58;94057.50;;;15.69;38.12
30819;BME280;17546;42.674;23.284;2023-04-03T03:01:24;94078.09;;;15.79;38.33
30819;BME280;17546;42.674;23.284;2023-04-03T03:03:49;94079.97;;;15.84;38.10
30819;BME280;17546;42.674;23.284;2023-04-03T03:06:16;94084.09;;;15.83;38.11
30819;BME280;17546;42.674;23.284;2023-04-03T03:08:42;94056.84;;;15.76;38.14
30819;BME280;17546;42.674;23.284;2023-04-03T03:11:09;94070.69;;;15.89;38.23
30819;BME280;17546;42.674;23.284;2023-04-03T03:13:35;94076.28;;;15.89;37.94
30819;BME280;17546;42.674;23.284;2023-04-03T03:16:01;94078.19;;;15.95;38.16
30819;BME280;17546;42.674;23.284;2023-04-03T03:18:28;94072.63;;;15.95;38.12
30819;BME280;17546;42.674;23.284;2023-04-03T03:20:58;94076.28;;;15.89;38.34
30819;BME280;17546;42.674;23.284;2023-04-03T03:23:25;94083.50;;;15.85;38.34
30819;BME280;17546;42.674;23.284;2023-04-03T03:25:56;94041.94;;;15.53;38.55
30819;BME280;17546;42.674;23.284;2023-04-03T03:28:21;94054.47;;;15.59;38.37
30819;BME280;17546;42.674;23.284;2023-04-03T03:30:47;94049.50;;;15.65;38.17
30819;BME280;17546;42.674;23.284;2023-04-03T03:33:12;94072.31;;;15.77;38.28
30819;BME280;17546;42.674;23.284;2023-04-03T03:35:38;94048.53;;;15.63;38.41
30819;BME280;17546;42.674;23.284;2023-04-03T03:38:03;94070.63;;;15.74;38.30
30819;BME280;17546;42.674;23.284;2023-04-03T03:40:28;94070.41;;;15.72;38.49
30819;BME280;17546;42.674;23.284;2023-04-03T03:42:54;94071.22;;;15.59;38.61
30819;BME280;17546;42.674;23.284;2023-04-03T03:45:20;94074.34;;;15.77;38.49
30819;BME280;17546;42.674;23.284;2023-04-03T03:47:45;94077.13;;;15.56;38.87
30819;BME280;17546;42.674;23.284;2023-04-03T03:50:10;94044.47;;;15.22;39.19
30819;BME280;17546;42.674;23.284;2023-04-03T03:52:36;94079.78;;;15.61;38.65
30819;BME280;17546;42.674;23.284;2023-04-03T03:55:01;94090.19;;;15.61;38.85
30819;BME280;17546;42.674;23.284;2023-04-03T03:57:27;94081.88;;;15.68;38.49
30819;BME280;17546;42.674;23.284;2023-04-03T03:59:54;94062.47;;;15.63;38.68
30819;BME280;17546;42.674;23.284;2023-04-03T04:02:19;94081.78;;;15.74;38.60
30819;BME280;17546;42.674;23.284;2023-04-03T04:04:45;94082.88;;;15.71;38.74
30819;BME280;17546;42.674;23.284;2023-04-03T04:07:11;94062.47;;;15.63;38.59
30819;BME280;17546;42.674;23.284;2023-04-03T04:09:36;94065.22;;;15.76;38.55
30819;BME280;17546;42.674;23.284;2023-04-03T04:12:02;94080.72;;;15.85;38.38
30819;BME280;17546;42.674;23.284;2023-04-03T04:14:27;94088.97;;;15.90;38.12
30819;BME280;17546;42.674;23.284;2023-04-03T04:16:53;94079.97;;;15.84;38.07
30819;BME280;17546;42.674;23.284;2023-04-03T04:19:18;94090.16;;;15.74;38.26
30819;BME280;17546;42.674;23.284;2023-04-03T04:21:44;94103.91;;;15.72;38.48
30819;BME280;17546;42.674;23.284;2023-04-03T04:24:11;94104.66;;;15.73;38.30
30819;BME280;17546;42.674;23.284;2023-04-03T04:26:37;94093.66;;;15.54;38.84
30819;BME280;17546;42.674;23.284;2023-04-03T04:29:02;94091.78;;;15.48;39.00
30819;BME280;17546;42.674;23.284;2023-04-03T04:31:27;94071.97;;;15.18;39.13
30819;BME280;17546;42.674;23.284;2023-04-03T04:33:53;94088.69;;;15.39;39.21
30819;BME280;17546;42.674;23.284;2023-04-03T04:36:19;94093.69;;;15.33;39.47
30819;BME280;17546;42.674;23.284;2023-04-03T04:38:44;94110.16;;;15.44;39.17
30819;BME280;17546;42.674;23.284;2023-04-03T04:41:10;94097.84;;;15.39;38.96
30819;BME280;17546;42.674;23.284;2023-04-03T04:43:36;94105.94;;;15.50;38.88
30819;BME280;17546;42.674;23.284;2023-04-03T04:46:06;94090.34;;;15.34;39.05
30819;BME280;17546;42.674;23.284;2023-04-03T04:48:33;94111.38;;;15.35;39.50
30819;BME280;17546;42.674;23.284;2023-04-03T04:50:58;94103.06;;;15.43;39.27
30819;BME280;17546;42.674;23.284;2023-04-03T04:53:24;94118.38;;;15.49;39.29
30819;BME280;17546;42.674;23.284;2023-04-03T04:55:49;94100.00;;;15.33;39.34
30819;BME280;17546;42.674;23.284;2023-04-03T04:58:15;94119.88;;;15.50;39.41
30819;BME280;17546;42.674;23.284;2023-04-03T05:00:40;94116.47;;;15.44;39.30
30819;BME280;17546;42.674;23.284;2023-04-03T05:03:06;94118.06;;;15.53;39.29
30819;BME280;17546;42.674;23.284;2023-04-03T05:05:31;94131.13;;;15.37;39.19
30819;BME280;17546;42.674;23.284;2023-04-03T05:07:57;94130.56;;;15.39;39.35
30819;BME280;17546;42.674;23.284;2023-04-03T05:10:22;94136.97;;;15.47;39.16
30819;BME280;17546;42.674;23.284;2023-04-03T05:12:48;94137.22;;;15.36;39.43
30819;BME280;17546;42.674;23.284;2023-04-03T05:15:13;94140.16;;;15.51;39.16
30819;BME280;17546;42.674;23.284;2023-04-03T05:17:39;94144.31;;;15.58;38.98
30819;BME280;17546;42.674;23.284;2023-04-03T05:20:05;94153.03;;;15.54;39.15
30819;BME280;17546;42.674;23.284;2023-04-03T05:22:31;94148.63;;;15.59;39.15
30819;BME280;17546;42.674;23.284;2023-04-03T05:24:56;94144.94;;;15.64;39.12
30819;BME280;17546;42.674;23.284;2023-04-03T05:27:22;94149.53;;;15.75;39.20
30819;BME280;17546;42.674;23.284;2023-04-03T05:29:49;94145.09;;;15.79;39.21
30819;BME280;17546;42.674;23.284;2023-04-03T05:32:14;94149.19;;;15.78;39.24
30819;BME280;17546;42.674;23.284;2023-04-03T05:34:40;94150.00;;;15.86;39.19
30819;BME280;17546;42.674;23.284;2023-04-03T05:37:05;94143.84;;;15.67;39.05
30819;BME280;17546;42.674;23.284;2023-04-03T05:39:31;94129.25;;;15.74;38.72
30819;BME280;17546;42.674;23.284;2023-04-03T05:41:57;94144.41;;;15.86;38.89
30819;BME280;17546;42.674;23.284;2023-04-03T05:44:22;94127.88;;;15.88;38.63
30819;BME280;17546;42.674;23.284;2023-04-03T05:46:47;94146.03;;;16.03;38.83
30819;BME280;17546;42.674;23.284;2023-04-03T05:49:13;94119.81;;;15.85;38.67
30819;BME280;17546;42.674;23.284;2023-04-03T05:51:39;94137.06;;;15.97;38.34
30819;BME280;17546;42.674;23.284;2023-04-03T05:54:11;94135.22;;;15.99;38.56
30819;BME280;17546;42.674;23.284;2023-04-03T05:56:38;94123.84;;;15.76;38.54
30819;BME280;17546;42.674;23.284;2023-04-03T05:59:04;94103.47;;;15.68;38.56
30819;BME280;17546;42.674;23.284;2023-04-03T06:01:29;94135.53;;;15.96;38.27
30819;BME280;17546;42.674;23.284;2023-04-03T06:03:55;94109.34;;;15.78;38.41
30819;BME280;17546;42.674;23.284;2023-04-03T06:06:21;94139.38;;;15.64;38.76
30819;BME280;17546;42.674;23.284;2023-04-03T06:08:47;94124.22;;;15.73;38.74
30819;BME280;17546;42.674;23.284;2023-04-03T06:11:12;94112.28;;;15.72;38.63
30819;BME280;17546;42.674;23.284;2023-04-03T06:13:38;94117.19;;;15.79;38.84
30819;BME280;17546;42.674;23.284;2023-04-03T06:16:04;94090.34;;;15.76;38.57
30819;BME280;17546;42.674;23.284;2023-04-03T06:18:30;94103.84;;;15.85;38.73
30819;BME280;17546;42.674;23.284;2023-04-03T06:20:56;94081.09;;;15.81;38.52
30819;BME280;17546;42.674;23.284;2023-04-03T06:23:23;94090.59;;;15.65;38.88
30819;BME280;17546;42.674;23.284;2023-04-03T06:25:48;94109.53;;;16.01;38.65
30819;BME280;17546;42.674;23.284;2023-04-03T06:28:14;94125.88;;;15.97;39.19
30819;BME280;17546;42.674;23.284;2023-04-03T06:30:39;94115.03;;;15.93;39.17
30819;BME280;17546;42.674;23.284;2023-04-03T06:33:05;94114.91;;;15.99;39.05
30819;BME280;17546;42.674;23.284;2023-04-03T06:35:30;94096.44;;;15.96;38.80
30819;BME280;17546;42.674;23.284;2023-04-03T06:37:56;94121.44;;;16.01;38.53
30819;BME280;17546;42.674;23.284;2023-04-03T06:40:25;94111.81;;;16.10;38.74
30819;BME280;17546;42.674;23.284;2023-04-03T06:42:51;94113.00;;;15.94;38.32
30819;BME280;17546;42.674;23.284;2023-04-03T06:45:17;94135.34;;;15.94;38.37
30819;BME280;17546;42.674;23.284;2023-04-03T06:47:42;94099.66;;;15.58;38.94
30819;BME280;17546;42.674;23.284;2023-04-03T06:50:10;94128.75;;;15.83;39.00
30819;BME280;17546;42.674;23.284;2023-04-03T06:52:36;94106.41;;;15.83;38.76
30819;BME280;17546;42.674;23.284;2023-04-03T06:55:03;94145.34;;;16.10;38.52
30819;BME280;17546;42.674;23.284;2023-04-03T06:57:29;94146.81;;;16.32;38.27
30819;BME280;17546;42.674;23.284;2023-04-03T06:59:54;94152.31;;;16.53;38.15
30819;BME280;17546;42.674;23.284;2023-04-03T07:02:20;94123.78;;;16.47;38.30
30819;BME280;17546;42.674;23.284;2023-04-03T07:04:46;94145.25;;;16.52;38.27
30819;BME280;17546;42.674;23.284;2023-04-03T07:07:12;94137.06;;;16.54;38.33
30819;BME280;17546;42.674;23.284;2023-04-03T07:09:37;94142.34;;;16.37;38.37
30819;BME280;17546;42.674;23.284;2023-04-03T07:12:03;94143.34;;;16.47;38.31
30819;BME280;17546;42.674;23.284;2023-04-03T07:14:28;94111.91;;;15.97;38.82
30819;BME280;17546;42.674;23.284;2023-04-03T07:16:54;94117.72;;;15.99;38.97
30819;BME280;17546;42.674;23.284;2023-04-03T07:19:19;94105.00;;;16.19;38.37
30819;BME280;17546;42.674;23.284;2023-04-03T07:21:45;94122.34;;;16.25;38.47
30819;BME280;17546;42.674;23.284;2023-04-03T07:24:11;94118.56;;;16.15;38.66
30819;BME280;17546;42.674;23.284;2023-04-03T07:26:36;94112.91;;;16.07;38.95
30819;BME280;17546;42.674;23.284;2023-04-03T07:29:02;94102.84;;;16.04;38.84
30819;BME280;17546;42.674;23.284;2023-04-03T07:31:29;94112.22;;;16.14;39.19
30819;BME280;17546;42.674;23.284;2023-04-03T07:33:55;94115.59;;;15.91;39.27
30819;BME280;17546;42.674;23.284;2023-04-03T07:36:21;94122.38;;;16.32;38.62
30819;BME280;17546;42.674;23.284;2023-04-03T07:38:47;94111.75;;;16.67;38.13
30819;BME280;17546;42.674;23.284;2023-04-03T07:41:15;94099.84;;;16.74;38.18
30819;BME280;17546;42.674;23.284;2023-04-03T07:43:41;94094.84;;;16.37;38.33
30819;BME280;17546;42.674;23.284;2023-04-03T07:46:07;94090.97;;;16.11;39.07
30819;BME280;17546;42.674;23.284;2023-04-03T07:48:32;94089.69;;;16.48;38.48
30819;BME280;17546;42.674;23.284;2023-04-03T07:51:00;94090.13;;;16.68;38.16
30819;BME280;17546;42.674;23.284;2023-04-03T07:53:27;94091.31;;;16.36;38.26
30819;BME280;17546;42.674;23.284;2023-04-03T07:55:52;94074.28;;;16.63;37.86
30819;BME280;17546;42.674;23.284;2023-04-03T07:58:20;94095.66;;;16.52;37.94
30819;BME280;17546;42.674;23.284;2023-04-03T08:00:46;94084.75;;;16.70;37.85
30819;BME280;17546;42.674;23.284;2023-04-03T08:03:12;94079.81;;;16.91;37.78
30819;BME280;17546;42.674;23.284;2023-04-03T08:05:40;94080.75;;;16.50;38.36
30819;BME280;17546;42.674;23.284;2023-04-03T08:08:06;94066.75;;;16.94;37.59
30819;BME280;17546;42.674;23.284;2023-04-03T08:10:32;94085.50;;;17.45;37.05
30819;BME280;17546;42.674;23.284;2023-04-03T08:12:59;94055.63;;;17.25;36.85
30819;BME280;17546;42.674;23.284;2023-04-03T08:15:24;94068.72;;;17.61;36.55
30819;BME280;17546;42.674;23.284;2023-04-03T08:17:50;94075.53;;;16.98;37.32
30819;BME280;17546;42.674;23.284;2023-04-03T08:20:15;94078.78;;;17.41;36.51
30819;BME280;17546;42.674;23.284;2023-04-03T08:22:41;94081.97;;;17.52;36.22
30819;BME280;17546;42.674;23.284;2023-04-03T08:25:07;94060.16;;;17.89;35.65
30819;BME280;17546;42.674;23.284;2023-04-03T08:27:33;94071.16;;;18.10;35.62
30819;BME280;17546;42.674;23.284;2023-04-03T08:29:58;94070.59;;;17.96;35.77
30819;BME280;17546;42.674;23.284;2023-04-03T08:32:24;94073.97;;;17.64;36.16
30819;BME280;17546;42.674;23.284;2023-04-03T08:34:49;94064.97;;;17.66;36.12
30819;BME280;17546;42.674;23.284;2023-04-03T08:37:15;94056.78;;;17.99;35.83
30819;BME280;17546;42.674;23.284;2023-04-03T08:39:41;94057.56;;;17.84;35.99
30819;BME280;17546;42.674;23.284;2023-04-03T08:45:15;94056.59;;;17.96;35.62
30819;BME280;17546;42.674;23.284;2023-04-03T08:48:04;94056.78;;;17.60;36.97
30819;BME280;17546;42.674;23.284;2023-04-03T08:50:36;94049.66;;;18.13;35.92
30819;BME280;17546;42.674;23.284;2023-04-03T08:53:04;94051.84;;;18.37;35.76
30819;BME280;17546;42.674;23.284;2023-04-03T08:55:51;94050.13;;;18.50;35.11
30819;BME280;17546;42.674;23.284;2023-04-03T08:58:24;94042.81;;;18.47;36.00
30819;BME280;17546;42.674;23.284;2023-04-03T09:01:01;94037.47;;;18.74;35.38
30819;BME280;17546;42.674;23.284;2023-04-03T09:03:31;94015.88;;;18.59;34.81
30819;BME280;17546;42.674;23.284;2023-04-03T09:06:01;94038.19;;;18.42;35.03
30819;BME280;17546;42.674;23.284;2023-04-03T09:11:51;94029.19;;;18.91;34.64
30819;BME280;17546;42.674;23.284;2023-04-03T09:16:59;94004.22;;;18.70;34.77
30819;BME280;17546;42.674;23.284;2023-04-03T09:24:31;94005.47;;;19.17;34.37
30819;BME280;17546;42.674;23.284;2023-04-03T09:27:15;93977.28;;;18.75;34.52
30819;BME280;17546;42.674;23.284;2023-04-03T09:29:44;93999.50;;;18.40;34.91
30819;BME280;17546;42.674;23.284;2023-04-03T09:32:31;93997.97;;;18.47;34.71
30819;BME280;17546;42.674;23.284;2023-04-03T09:34:58;93996.94;;;19.08;34.45
30819;BME280;17546;42.674;23.284;2023-04-03T09:37:42;93990.16;;;19.11;34.33
30819;BME280;17546;42.674;23.284;2023-04-03T09:42:54;93987.56;;;19.55;33.57
30819;BME280;17546;42.674;23.284;2023-04-03T09:45:26;93985.63;;;19.15;33.46
30819;BME280;17546;42.674;23.284;2023-04-03T09:48:09;93981.50;;;19.67;33.07
30819;BME280;17546;42.674;23.284;2023-04-03T09:50:58;93982.19;;;19.75;32.86
30819;BME280;17546;42.674;23.284;2023-04-03T09:58:46;93968.00;;;19.48;32.59
30819;BME280;17546;42.674;23.284;2023-04-03T10:04:22;93967.28;;;19.65;32.41
30819;BME280;17546;42.674;23.284;2023-04-03T10:06:55;93961.38;;;19.78;32.27
30819;BME280;17546;42.674;23.284;2023-04-03T10:12:11;93975.25;;;20.28;31.58
30819;BME280;17546;42.674;23.284;2023-04-03T10:14:53;93970.63;;;20.40;31.72
30819;BME280;17546;42.674;23.284;2023-04-03T10:25:33;93958.91;;;19.82;31.96
30819;BME280;17546;42.674;23.284;2023-04-03T10:28:09;93959.03;;;19.67;31.96
30819;BME280;17546;42.674;23.284;2023-04-03T10:30:50;93946.50;;;19.85;31.66
30819;BME280;17546;42.674;23.284;2023-04-03T10:39:06;93939.47;;;19.76;31.98
30819;BME280;17546;42.674;23.284;2023-04-03T10:41:42;93936.72;;;19.86;31.89
30819;BME280;17546;42.674;23.284;2023-04-03T10:47:30;93925.94;;;20.00;32.34
30819;BME280;17546;42.674;23.284;2023-04-03T10:50:25;93930.75;;;19.65;32.52
30819;BME280;17546;42.674;23.284;2023-04-03T10:57:54;93930.94;;;20.01;32.10
30819;BME280;17546;42.674;23.284;2023-04-03T11:00:28;93927.06;;;19.97;32.10
30819;BME280;17546;42.674;23.284;2023-04-03T11:02:59;93936.22;;;20.15;32.15
30819;BME280;17546;42.674;23.284;2023-04-03T11:05:34;93941.63;;;20.20;32.21
30819;BME280;17546;42.674;23.284;2023-04-03T11:11:00;93942.31;;;19.51;33.67
30819;BME280;17546;42.674;23.284;2023-04-03T11:16:18;93941.84;;;18.14;36.55
30819;BME280;17546;42.674;23.284;2023-04-03T11:19:07;93938.72;;;18.83;36.61
30819;BME280;17546;42.674;23.284;2023-04-03T11:21:48;93948.31;;;18.65;37.43
30819;BME280;17546;42.674;23.284;2023-04-03T11:24:23;93938.34;;;18.46;38.71
30819;BME280;17546;42.674;23.284;2023-04-03T11:26:50;93945.44;;;18.88;38.65
30819;BME280;17546;42.674;23.284;2023-04-03T11:29:23;93939.00;;;18.95;39.14
30819;BME280;17546;42.674;23.284;2023-04-03T11:36:53;93941.38;;;18.73;41.55
30819;BME280;17546;42.674;23.284;2023-04-03T11:39:35;93937.75;;;18.88;41.57
30819;BME280;17546;42.674;23.284;2023-04-03T11:42:26;93938.72;;;18.75;41.20
30819;BME280;17546;42.674;23.284;2023-04-03T11:50:58;93919.31;;;17.96;44.18
30819;BME280;17546;42.674;23.284;2023-04-03T11:58:26;93950.78;;;18.20;44.23
30819;BME280;17546;42.674;23.284;2023-04-03T12:04:13;93929.38;;;18.00;44.54
30819;BME280;17546;42.674;23.284;2023-04-03T12:08:52;93933.06;;;18.17;44.00
30819;BME280;17546;42.674;23.284;2023-04-03T12:11:31;93953.59;;;18.20;44.94
30819;BME280;17546;42.674;23.284;2023-04-03T12:24:04;93930.72;;;17.83;47.69
30819;BME280;17546;42.674;23.284;2023-04-03T12:43:06;93909.25;;;17.86;48.24
30819;BME280;17546;42.674;23.284;2023-04-03T12:45:49;93901.66;;;17.55;48.24
30819;BME280;17546;42.674;23.284;2023-04-03T12:48:20;93877.34;;;17.66;48.07
30819;BME280;17546;42.674;23.284;2023-04-03T12:50:49;93866.34;;;17.68;48.09
30819;BME280;17546;42.674;23.284;2023-04-03T12:53:23;93882.00;;;17.86;48.13
30819;BME280;17546;42.674;23.284;2023-04-03T12:55:57;93874.00;;;17.75;48.00
30819;BME280;17546;42.674;23.284;2023-04-03T12:58:42;93883.00;;;17.58;48.19
30819;BME280;17546;42.674;23.284;2023-04-03T13:01:13;93888.66;;;17.20;48.83
30819;BME280;17546;42.674;23.284;2023-04-03T13:03:45;93890.47;;;17.48;48.91
30819;BME280;17546;42.674;23.284;2023-04-03T13:06:19;93872.63;;;17.12;49.13
30819;BME280;17546;42.674;23.284;2023-04-03T13:08:55;93861.63;;;16.99;49.71
30819;BME280;17546;42.674;23.284;2023-04-03T13:11:23;93884.72;;;17.38;48.98
30819;BME280;17546;42.674;23.284;2023-04-03T13:14:04;93881.38;;;17.40;48.66
30819;BME280;17546;42.674;23.284;2023-04-03T13:16:53;93875.75;;;17.32;49.32
30819;BME280;17546;42.674;23.284;2023-04-03T13:19:18;93881.03;;;17.05;49.43
30819;BME280;17546;42.674;23.284;2023-04-03T13:21:44;93879.50;;;17.19;49.62
30819;BME280;17546;42.674;23.284;2023-04-03T13:24:11;93882.50;;;17.21;49.49
30819;BME280;17546;42.674;23.284;2023-04-03T13:26:37;93865.69;;;17.21;49.47
30819;BME280;17546;42.674;23.284;2023-04-03T13:29:05;93875.03;;;17.08;49.68
30819;BME280;17546;42.674;23.284;2023-04-03T13:31:36;93873.75;;;16.94;50.22
30819;BME280;17546;42.674;23.284;2023-04-03T13:34:18;93863.50;;;16.89;50.37
30819;BME280;17546;42.674;23.284;2023-04-03T13:36:54;93868.16;;;16.94;50.37
30819;BME280;17546;42.674;23.284;2023-04-03T13:39:29;93855.56;;;16.18;51.70
30819;BME280;17546;42.674;23.284;2023-04-03T13:41:57;93849.31;;;16.56;50.24
30819;BME280;17546;42.674;23.284;2023-04-03T13:49:38;93858.44;;;16.57;50.76
30819;BME280;17546;42.674;23.284;2023-04-03T13:52:27;93863.84;;;16.55;50.73
30819;BME280;17546;42.674;23.284;2023-04-03T13:55:01;93828.41;;;16.42;51.16
30819;BME280;17546;42.674;23.284;2023-04-03T13:57:27;93854.91;;;16.56;51.35
30819;BME280;17546;42.674;23.284;2023-04-03T13:59:53;93819.13;;;16.47;50.49
30819;BME280;17546;42.674;23.284;2023-04-03T14:02:29;93858.78;;;16.53;50.84
30819;BME280;17546;42.674;23.284;2023-04-03T14:04:58;93826.19;;;16.48;51.01
30819;BME280;17546;42.674;23.284;2023-04-03T14:07:27;93856.41;;;16.65;50.80
30819;BME280;17546;42.674;23.284;2023-04-03T14:09:53;93853.03;;;16.74;50.56
30819;BME280;17546;42.674;23.284;2023-04-03T14:14:45;93844.47;;;16.80;50.81
30819;BME280;17546;42.674;23.284;2023-04-03T14:17:20;93824.69;;;16.31;51.16
30819;BME280;17546;42.674;23.284;2023-04-03T14:19:46;93849.88;;;16.85;50.40
30819;BME280;17546;42.674;23.284;2023-04-03T14:22:20;93847.44;;;16.97;50.29
30819;BME280;17546;42.674;23.284;2023-04-03T14:24:48;93824.34;;;16.89;49.93
30819;BME280;17546;42.674;23.284;2023-04-03T14:29:46;93833.09;;;16.55;50.54
30819;BME280;17546;42.674;23.284;2023-04-03T14:32:14;93809.22;;;16.46;50.20
30819;BME280;17546;42.674;23.284;2023-04-03T14:34:41;93814.63;;;16.59;49.90
30819;BME280;17546;42.674;23.284;2023-04-03T14:37:16;93835.88;;;16.55;50.14
30819;BME280;17546;42.674;23.284;2023-04-03T14:39:44;93818.91;;;16.68;50.18
30819;BME280;17546;42.674;23.284;2023-04-03T14:42:33;93838.16;;;16.87;50.00
30819;BME280;17546;42.674;23.284;2023-04-03T14:45:01;93822.63;;;16.70;49.84
30819;BME280;17546;42.674;23.284;2023-04-03T14:47:29;93832.53;;;16.71;50.10
30819;BME280;17546;42.674;23.284;2023-04-03T14:49:55;93820.97;;;16.75;50.10
30819;BME280;17546;42.674;23.284;2023-04-03T14:52:24;93830.28;;;16.55;49.93
30819;BME280;17546;42.674;23.284;2023-04-03T14:54:52;93822.81;;;16.26;50.36